TABS, Texas Automated Buoy System, NOAA HAZMAT, Ocean Observatory, Real Time Oceanographic Data Supporting Oil Spill Prevention and Response

Texas General Land Office  Texas General
 Land Office
 Oil Spill Prevention
 & Response
Texas Automated Buoy System
Real Time Ocean Observations
Supporting Oil Spill Prevention and Response since 1995
Geochemical and Environmental Research Group

TABS Buoy J -- Texas Automated Buoy System

TABS Buoy J Conditions at 07/24/2016 14:30 UTC (07/24/2016 09:30 CDT)
26° 11.4840'N   97° 3.0420'W
AA3900 DCS - sensor depth 2m
Anemometer height: 4m
Water Depth: 68 feet (20 meters)
Speed: 12.47 cm/s (0.24 kts) Direction: 66 °T (ENE) Water Temp: 28°C (83 °F)
System Voltage: 13.2 V Signal Strength: -4.4 dB Ping Count: 128
Wind: 0.6 m/s (1.2 kts)
          From 158°T (SSE)
Air Temp: 29 °C (83 °F)
Relative Humidity:  N/A
Pressure: 1014.0 mb (29.94 inHg)

  


IMPORTANT: Notice to Mariners


Today's Meteorological Data (download)

   Date   |  Time  |  VEast   North    AirT  AtmPr     Gust   Comp   Tx   Ty    PAR   RelH
          |  (UTC) |  (m/s)|  (m/s)|   (°C)|  (mb) |  (m/s)|  (°M) |    |    |      |  (%) |
==========+========+=======+=======+=======+=======+=======+=======+====+====+======+======+
07/24/2016 00:00:00   -4.01    4.56    28.8 1011.59    7.33   216.2    1    5    0.0 -999.0
07/24/2016 00:30:00   -3.60    4.86    28.8 1011.52    7.06   219.2    1    5    0.0 -999.0
07/24/2016 01:00:00   -3.99    4.91    28.6 1011.39    7.53   221.1    1    5    0.0 -999.0
07/24/2016 01:30:00   -1.89    2.89    28.5 1011.74    7.46   223.2    1    5    0.0 -999.0
07/24/2016 02:00:00   -3.35    4.94    28.4 1012.18    6.89   224.9    1    5    0.0 -999.0
07/24/2016 02:30:00   -3.25    5.33    28.5 1012.60    7.57   228.5    1    5    0.0 -999.0
07/24/2016 03:00:00   -3.17    5.75    28.5 1012.85    8.20   229.7    1    6    0.0 -999.0
07/24/2016 03:30:00   -3.12    6.50    28.5 1013.04    8.66   235.5    1    6    0.0 -999.0
07/24/2016 04:00:00   -2.85    6.74    28.4 1013.44    9.21   238.2    1    6    0.0 -999.0
07/24/2016 04:30:00   -2.28    7.16    28.4 1013.50    9.94   242.5    1    7    0.0 -999.0
07/24/2016 05:00:00   -2.19    6.77    28.4 1013.64    9.10   241.4    1    6    0.0 -999.0
07/24/2016 05:30:00   -2.31    5.73    27.1 1013.56    7.60   239.7    1    5    0.0 -999.0
07/24/2016 06:00:00   -1.66    6.90    28.2 1013.23    8.61   247.0    1    6    0.0 -999.0
07/24/2016 06:30:00   -1.60    6.32    28.1 1013.06    7.76   247.5    1    6    0.0 -999.0
07/24/2016 07:00:00   -1.07    6.72    28.2 1012.81    8.45   250.4    1    6    0.0 -999.0
07/24/2016 07:30:00   -1.30    6.41    28.2 1012.64    7.86   250.0    1    6    0.0 -999.0
07/24/2016 08:00:00   -1.01    6.11    28.2 1012.41    8.39   254.6    1    6    0.0 -999.0
07/24/2016 08:30:00   -0.29    6.32    28.1 1012.23    8.11   257.4    1    6    0.0 -999.0
07/24/2016 09:00:00   -0.84    5.49    28.0 1012.24    6.99   253.2    1    5    0.0 -999.0
07/24/2016 09:30:00   -0.66    5.77    28.0 1012.17    7.08   257.1    1    5    0.0 -999.0
07/24/2016 10:00:00   -0.40    5.72    28.0 1012.31    6.99   263.0    1    5    0.0 -999.0
07/24/2016 10:30:00   -0.55    5.38    28.1 1012.18    6.61   259.6    1    5    0.0 -999.0
07/24/2016 11:00:00   -0.29    5.49    27.9 1012.16    7.11   260.2    1    5    0.0 -999.0
07/24/2016 11:30:00   -0.57    5.27    27.9 1012.06    6.39   260.6    1    5    0.0 -999.0
07/24/2016 12:00:00   -0.79    4.92    27.8 1012.37    6.59   260.3    1    4    0.0 -999.0
07/24/2016 12:30:00   -1.31    6.04    28.0 1012.48    7.45   257.8    1    5    0.0 -999.0
07/24/2016 13:00:00   -1.12    6.14    28.5 1012.76    7.72   257.7    1    5    0.0 -999.0
07/24/2016 13:30:00    0.00    0.00    28.5 1013.25    0.00   259.0    1    4    0.0 -999.0
07/24/2016 14:00:00   -0.01    0.04    28.5 1013.67    0.88   257.3    1    4    0.0 -999.0
07/24/2016 14:30:00   -0.22    0.55    28.6 1013.99    4.30   257.0    1    4    0.0 -999.0